sensor_id;sensor_type;location;lat;lon;timestamp;P1;durP1;ratioP1;P2;durP2;ratioP2
74630;SDS011;63138;55.082;38.804;2023-04-09T00:01:26;19.07;;;10.27;;
74630;SDS011;63138;55.082;38.804;2023-04-09T00:03:52;17.42;;;10.10;;
74630;SDS011;63138;55.082;38.804;2023-04-09T00:06:19;17.00;;;10.68;;
74630;SDS011;63138;55.082;38.804;2023-04-09T00:08:46;18.63;;;10.17;;
74630;SDS011;63138;55.082;38.804;2023-04-09T00:11:12;17.27;;;10.18;;
74630;SDS011;63138;55.082;38.804;2023-04-09T00:13:38;17.00;;;10.75;;
74630;SDS011;63138;55.082;38.804;2023-04-09T00:16:07;17.88;;;10.02;;
74630;SDS011;63138;55.082;38.804;2023-04-09T00:18:33;13.90;;;7.67;;
74630;SDS011;63138;55.082;38.804;2023-04-09T00:20:59;20.70;;;10.05;;
74630;SDS011;63138;55.082;38.804;2023-04-09T00:23:25;16.50;;;9.75;;
74630;SDS011;63138;55.082;38.804;2023-04-09T00:25:51;16.53;;;9.80;;
74630;SDS011;63138;55.082;38.804;2023-04-09T00:28:19;21.73;;;9.88;;
74630;SDS011;63138;55.082;38.804;2023-04-09T00:34:52;18.60;;;12.07;;
74630;SDS011;63138;55.082;38.804;2023-04-09T00:37:18;20.03;;;9.33;;
74630;SDS011;63138;55.082;38.804;2023-04-09T00:39:44;22.50;;;10.23;;
74630;SDS011;63138;55.082;38.804;2023-04-09T00:42:12;21.55;;;9.57;;
74630;SDS011;63138;55.082;38.804;2023-04-09T00:44:39;21.05;;;10.75;;
74630;SDS011;63138;55.082;38.804;2023-04-09T00:47:07;21.65;;;11.10;;
74630;SDS011;63138;55.082;38.804;2023-04-09T00:49:33;21.30;;;10.00;;
74630;SDS011;63138;55.082;38.804;2023-04-09T00:52:00;23.63;;;10.18;;
74630;SDS011;63138;55.082;38.804;2023-04-09T00:54:26;21.30;;;10.15;;
74630;SDS011;63138;55.082;38.804;2023-04-09T00:56:52;20.10;;;10.60;;
74630;SDS011;63138;55.082;38.804;2023-04-09T00:59:39;17.60;;;9.77;;
74630;SDS011;63138;55.082;38.804;2023-04-09T01:02:05;15.73;;;8.87;;
74630;SDS011;63138;55.082;38.804;2023-04-09T01:04:32;14.95;;;8.77;;
74630;SDS011;63138;55.082;38.804;2023-04-09T01:07:42;18.05;;;8.82;;
74630;SDS011;63138;55.082;38.804;2023-04-09T01:09:57;17.05;;;8.05;;
74630;SDS011;63138;55.082;38.804;2023-04-09T01:15:32;18.97;;;9.27;;
74630;SDS011;63138;55.082;38.804;2023-04-09T01:18:06;21.10;;;9.82;;
74630;SDS011;63138;55.082;38.804;2023-04-09T01:20:41;21.98;;;9.63;;
74630;SDS011;63138;55.082;38.804;2023-04-09T01:23:36;21.45;;;9.82;;
74630;SDS011;63138;55.082;38.804;2023-04-09T01:26:09;19.20;;;10.93;;
74630;SDS011;63138;55.082;38.804;2023-04-09T01:28:56;18.03;;;10.33;;
74630;SDS011;63138;55.082;38.804;2023-04-09T01:31:30;18.75;;;9.90;;
74630;SDS011;63138;55.082;38.804;2023-04-09T01:33:58;19.45;;;10.80;;
74630;SDS011;63138;55.082;38.804;2023-04-09T01:36:25;18.73;;;10.13;;
74630;SDS011;63138;55.082;38.804;2023-04-09T01:38:53;19.58;;;9.43;;
74630;SDS011;63138;55.082;38.804;2023-04-09T01:41:21;17.43;;;9.93;;
74630;SDS011;63138;55.082;38.804;2023-04-09T01:43:49;17.75;;;10.43;;
74630;SDS011;63138;55.082;38.804;2023-04-09T01:46:20;17.83;;;9.48;;
74630;SDS011;63138;55.082;38.804;2023-04-09T01:48:46;17.42;;;10.50;;
74630;SDS011;63138;55.082;38.804;2023-04-09T01:51:13;18.10;;;11.52;;
74630;SDS011;63138;55.082;38.804;2023-04-09T01:53:40;15.70;;;9.40;;
74630;SDS011;63138;55.082;38.804;2023-04-09T01:56:07;22.58;;;10.27;;
74630;SDS011;63138;55.082;38.804;2023-04-09T01:58:33;19.90;;;8.63;;
74630;SDS011;63138;55.082;38.804;2023-04-09T02:01:04;21.77;;;10.75;;
74630;SDS011;63138;55.082;38.804;2023-04-09T02:03:37;20.85;;;12.07;;
74630;SDS011;63138;55.082;38.804;2023-04-09T02:06:30;19.93;;;11.50;;
74630;SDS011;63138;55.082;38.804;2023-04-09T02:09:07;23.92;;;11.38;;
74630;SDS011;63138;55.082;38.804;2023-04-09T02:11:36;18.73;;;11.38;;
74630;SDS011;63138;55.082;38.804;2023-04-09T02:14:09;22.27;;;11.50;;
74630;SDS011;63138;55.082;38.804;2023-04-09T02:16:58;22.15;;;12.07;;
74630;SDS011;63138;55.082;38.804;2023-04-09T02:19:25;32.43;;;12.73;;
74630;SDS011;63138;55.082;38.804;2023-04-09T02:22:28;25.77;;;13.63;;
74630;SDS011;63138;55.082;38.804;2023-04-09T02:24:54;29.08;;;14.50;;
74630;SDS011;63138;55.082;38.804;2023-04-09T02:27:20;42.95;;;14.65;;
74630;SDS011;63138;55.082;38.804;2023-04-09T02:29:46;23.97;;;13.17;;
74630;SDS011;63138;55.082;38.804;2023-04-09T02:32:12;27.25;;;14.43;;
74630;SDS011;63138;55.082;38.804;2023-04-09T02:34:40;40.33;;;15.98;;
74630;SDS011;63138;55.082;38.804;2023-04-09T02:37:06;27.40;;;13.63;;
74630;SDS011;63138;55.082;38.804;2023-04-09T02:39:32;22.03;;;13.60;;
74630;SDS011;63138;55.082;38.804;2023-04-09T02:41:58;27.92;;;13.88;;
74630;SDS011;63138;55.082;38.804;2023-04-09T02:44:26;25.73;;;12.55;;
74630;SDS011;63138;55.082;38.804;2023-04-09T02:46:52;28.25;;;13.57;;
74630;SDS011;63138;55.082;38.804;2023-04-09T02:49:19;27.27;;;11.83;;
74630;SDS011;63138;55.082;38.804;2023-04-09T02:51:45;31.98;;;12.77;;
74630;SDS011;63138;55.082;38.804;2023-04-09T02:54:11;25.88;;;11.73;;
74630;SDS011;63138;55.082;38.804;2023-04-09T02:56:37;27.80;;;11.43;;
74630;SDS011;63138;55.082;38.804;2023-04-09T02:59:03;25.65;;;12.45;;
74630;SDS011;63138;55.082;38.804;2023-04-09T03:01:28;32.38;;;11.57;;
74630;SDS011;63138;55.082;38.804;2023-04-09T03:03:54;23.30;;;11.70;;
74630;SDS011;63138;55.082;38.804;2023-04-09T03:06:20;22.10;;;11.13;;
74630;SDS011;63138;55.082;38.804;2023-04-09T03:08:46;24.10;;;11.30;;
74630;SDS011;63138;55.082;38.804;2023-04-09T03:11:12;26.00;;;11.50;;
74630;SDS011;63138;55.082;38.804;2023-04-09T03:13:37;24.77;;;13.40;;
74630;SDS011;63138;55.082;38.804;2023-04-09T03:16:03;31.43;;;12.70;;
74630;SDS011;63138;55.082;38.804;2023-04-09T03:18:29;22.38;;;10.90;;
74630;SDS011;63138;55.082;38.804;2023-04-09T03:20:57;16.90;;;10.80;;
74630;SDS011;63138;55.082;38.804;2023-04-09T03:23:24;19.30;;;10.25;;
74630;SDS011;63138;55.082;38.804;2023-04-09T03:25:58;24.60;;;10.37;;
74630;SDS011;63138;55.082;38.804;2023-04-09T03:28:36;24.42;;;10.68;;
74630;SDS011;63138;55.082;38.804;2023-04-09T03:31:02;22.48;;;10.07;;
74630;SDS011;63138;55.082;38.804;2023-04-09T03:33:30;22.17;;;10.03;;
74630;SDS011;63138;55.082;38.804;2023-04-09T03:36:15;19.48;;;8.90;;
74630;SDS011;63138;55.082;38.804;2023-04-09T03:38:55;24.95;;;10.27;;
74630;SDS011;63138;55.082;38.804;2023-04-09T03:41:30;23.58;;;9.30;;
74630;SDS011;63138;55.082;38.804;2023-04-09T03:43:59;21.40;;;9.05;;
74630;SDS011;63138;55.082;38.804;2023-04-09T03:46:31;18.50;;;9.50;;
74630;SDS011;63138;55.082;38.804;2023-04-09T03:48:58;20.38;;;9.35;;
74630;SDS011;63138;55.082;38.804;2023-04-09T03:51:32;16.45;;;9.77;;
74630;SDS011;63138;55.082;38.804;2023-04-09T03:53:59;23.90;;;10.98;;
74630;SDS011;63138;55.082;38.804;2023-04-09T03:56:25;19.90;;;9.60;;
74630;SDS011;63138;55.082;38.804;2023-04-09T03:58:51;19.30;;;9.23;;
74630;SDS011;63138;55.082;38.804;2023-04-09T04:01:21;20.88;;;11.13;;
74630;SDS011;63138;55.082;38.804;2023-04-09T04:03:53;25.77;;;12.18;;
74630;SDS011;63138;55.082;38.804;2023-04-09T04:06:22;17.98;;;10.63;;
74630;SDS011;63138;55.082;38.804;2023-04-09T04:09:03;19.02;;;10.98;;
74630;SDS011;63138;55.082;38.804;2023-04-09T04:11:39;24.53;;;10.83;;
74630;SDS011;63138;55.082;38.804;2023-04-09T04:14:06;22.98;;;12.15;;
74630;SDS011;63138;55.082;38.804;2023-04-09T04:16:32;23.10;;;12.20;;
74630;SDS011;63138;55.082;38.804;2023-04-09T04:19:00;16.65;;;10.57;;
74630;SDS011;63138;55.082;38.804;2023-04-09T04:21:29;25.75;;;12.27;;
74630;SDS011;63138;55.082;38.804;2023-04-09T04:23:59;22.67;;;10.20;;
74630;SDS011;63138;55.082;38.804;2023-04-09T04:26:27;17.75;;;8.98;;
74630;SDS011;63138;55.082;38.804;2023-04-09T04:28:54;18.40;;;10.82;;
74630;SDS011;63138;55.082;38.804;2023-04-09T04:31:43;22.52;;;11.63;;
74630;SDS011;63138;55.082;38.804;2023-04-09T04:34:09;21.10;;;12.30;;
74630;SDS011;63138;55.082;38.804;2023-04-09T04:36:35;22.47;;;12.27;;
74630;SDS011;63138;55.082;38.804;2023-04-09T04:39:03;27.13;;;12.38;;
74630;SDS011;63138;55.082;38.804;2023-04-09T04:41:43;29.90;;;12.23;;
74630;SDS011;63138;55.082;38.804;2023-04-09T04:44:15;29.10;;;13.30;;
74630;SDS011;63138;55.082;38.804;2023-04-09T04:46:46;24.63;;;10.20;;
74630;SDS011;63138;55.082;38.804;2023-04-09T04:49:12;17.98;;;10.18;;
74630;SDS011;63138;55.082;38.804;2023-04-09T04:51:44;20.40;;;11.20;;
74630;SDS011;63138;55.082;38.804;2023-04-09T04:54:13;12.80;;;7.88;;
74630;SDS011;63138;55.082;38.804;2023-04-09T04:56:48;18.42;;;11.00;;
74630;SDS011;63138;55.082;38.804;2023-04-09T04:59:30;21.63;;;11.10;;
74630;SDS011;63138;55.082;38.804;2023-04-09T05:02:15;15.00;;;9.02;;
74630;SDS011;63138;55.082;38.804;2023-04-09T05:05:14;15.27;;;10.38;;
74630;SDS011;63138;55.082;38.804;2023-04-09T05:07:46;20.15;;;10.38;;
74630;SDS011;63138;55.082;38.804;2023-04-09T05:10:41;18.58;;;8.68;;
74630;SDS011;63138;55.082;38.804;2023-04-09T05:13:09;29.00;;;12.30;;
74630;SDS011;63138;55.082;38.804;2023-04-09T05:15:36;19.55;;;12.43;;
74630;SDS011;63138;55.082;38.804;2023-04-09T05:18:07;19.00;;;11.77;;
74630;SDS011;63138;55.082;38.804;2023-04-09T05:20:34;21.40;;;11.68;;
74630;SDS011;63138;55.082;38.804;2023-04-09T05:23:06;17.73;;;11.15;;
74630;SDS011;63138;55.082;38.804;2023-04-09T05:25:39;17.73;;;10.67;;
74630;SDS011;63138;55.082;38.804;2023-04-09T05:28:09;19.88;;;11.13;;
74630;SDS011;63138;55.082;38.804;2023-04-09T05:30:36;16.80;;;12.07;;
74630;SDS011;63138;55.082;38.804;2023-04-09T05:33:03;16.65;;;11.00;;
74630;SDS011;63138;55.082;38.804;2023-04-09T05:35:30;16.10;;;10.23;;
74630;SDS011;63138;55.082;38.804;2023-04-09T05:37:57;24.40;;;10.47;;
74630;SDS011;63138;55.082;38.804;2023-04-09T05:40:23;14.73;;;9.32;;
74630;SDS011;63138;55.082;38.804;2023-04-09T05:42:50;18.52;;;9.43;;
74630;SDS011;63138;55.082;38.804;2023-04-09T05:45:33;15.48;;;10.60;;
74630;SDS011;63138;55.082;38.804;2023-04-09T05:47:59;15.63;;;9.70;;
74630;SDS011;63138;55.082;38.804;2023-04-09T05:50:26;15.57;;;9.90;;
74630;SDS011;63138;55.082;38.804;2023-04-09T05:52:53;17.85;;;10.23;;
74630;SDS011;63138;55.082;38.804;2023-04-09T05:55:41;14.25;;;9.55;;
74630;SDS011;63138;55.082;38.804;2023-04-09T05:58:08;13.45;;;9.95;;
74630;SDS011;63138;55.082;38.804;2023-04-09T06:00:34;15.27;;;8.17;;
74630;SDS011;63138;55.082;38.804;2023-04-09T06:03:01;13.98;;;8.07;;
74630;SDS011;63138;55.082;38.804;2023-04-09T06:05:27;11.25;;;7.03;;
74630;SDS011;63138;55.082;38.804;2023-04-09T06:07:53;9.60;;;6.00;;
74630;SDS011;63138;55.082;38.804;2023-04-09T06:10:19;11.40;;;8.02;;
74630;SDS011;63138;55.082;38.804;2023-04-09T06:12:47;13.60;;;7.97;;
74630;SDS011;63138;55.082;38.804;2023-04-09T06:15:31;11.60;;;7.32;;
74630;SDS011;63138;55.082;38.804;2023-04-09T06:17:57;10.65;;;7.20;;
74630;SDS011;63138;55.082;38.804;2023-04-09T06:20:23;11.43;;;8.03;;
74630;SDS011;63138;55.082;38.804;2023-04-09T06:22:49;10.88;;;7.50;;
74630;SDS011;63138;55.082;38.804;2023-04-09T06:25:15;13.05;;;7.90;;
74630;SDS011;63138;55.082;38.804;2023-04-09T06:27:43;11.00;;;7.03;;
74630;SDS011;63138;55.082;38.804;2023-04-09T06:30:09;13.23;;;6.57;;
74630;SDS011;63138;55.082;38.804;2023-04-09T06:32:35;13.57;;;8.80;;
74630;SDS011;63138;55.082;38.804;2023-04-09T06:35:26;11.57;;;7.20;;
74630;SDS011;63138;55.082;38.804;2023-04-09T06:37:53;7.93;;;7.10;;
74630;SDS011;63138;55.082;38.804;2023-04-09T06:40:19;9.05;;;7.20;;
74630;SDS011;63138;55.082;38.804;2023-04-09T06:42:47;8.77;;;6.53;;
74630;SDS011;63138;55.082;38.804;2023-04-09T06:45:21;8.68;;;6.13;;
74630;SDS011;63138;55.082;38.804;2023-04-09T06:47:48;5.90;;;5.30;;
74630;SDS011;63138;55.082;38.804;2023-04-09T06:50:32;5.13;;;4.63;;
74630;SDS011;63138;55.082;38.804;2023-04-09T06:53:00;7.38;;;5.63;;
74630;SDS011;63138;55.082;38.804;2023-04-09T06:55:30;7.78;;;5.43;;
74630;SDS011;63138;55.082;38.804;2023-04-09T06:57:56;7.22;;;5.47;;
74630;SDS011;63138;55.082;38.804;2023-04-09T07:03:13;5.43;;;4.47;;
74630;SDS011;63138;55.082;38.804;2023-04-09T07:05:39;8.52;;;5.93;;
74630;SDS011;63138;55.082;38.804;2023-04-09T07:08:05;5.93;;;4.70;;
74630;SDS011;63138;55.082;38.804;2023-04-09T07:10:32;5.65;;;4.90;;
74630;SDS011;63138;55.082;38.804;2023-04-09T07:12:58;6.25;;;4.93;;
74630;SDS011;63138;55.082;38.804;2023-04-09T07:15:24;6.45;;;5.70;;
74630;SDS011;63138;55.082;38.804;2023-04-09T07:17:50;8.40;;;6.60;;
74630;SDS011;63138;55.082;38.804;2023-04-09T07:20:16;6.23;;;5.50;;
74630;SDS011;63138;55.082;38.804;2023-04-09T07:22:42;9.13;;;5.40;;
74630;SDS011;63138;55.082;38.804;2023-04-09T07:25:08;6.30;;;5.70;;
74630;SDS011;63138;55.082;38.804;2023-04-09T07:27:53;5.43;;;4.93;;
74630;SDS011;63138;55.082;38.804;2023-04-09T07:30:22;9.30;;;5.30;;
74630;SDS011;63138;55.082;38.804;2023-04-09T07:32:48;6.85;;;5.60;;
74630;SDS011;63138;55.082;38.804;2023-04-09T07:35:15;6.88;;;6.00;;
74630;SDS011;63138;55.082;38.804;2023-04-09T07:37:43;6.77;;;4.53;;
74630;SDS011;63138;55.082;38.804;2023-04-09T07:40:09;8.07;;;5.60;;
74630;SDS011;63138;55.082;38.804;2023-04-09T07:42:37;10.63;;;5.90;;
74630;SDS011;63138;55.082;38.804;2023-04-09T07:45:05;6.90;;;5.38;;
74630;SDS011;63138;55.082;38.804;2023-04-09T07:47:31;7.95;;;5.65;;
74630;SDS011;63138;55.082;38.804;2023-04-09T07:49:58;6.33;;;5.53;;
74630;SDS011;63138;55.082;38.804;2023-04-09T07:52:25;8.25;;;5.90;;
74630;SDS011;63138;55.082;38.804;2023-04-09T07:54:51;8.02;;;5.70;;
74630;SDS011;63138;55.082;38.804;2023-04-09T07:57:17;7.10;;;6.15;;
74630;SDS011;63138;55.082;38.804;2023-04-09T07:59:43;6.93;;;6.27;;
74630;SDS011;63138;55.082;38.804;2023-04-09T08:02:09;6.38;;;5.78;;
74630;SDS011;63138;55.082;38.804;2023-04-09T08:04:35;6.35;;;5.60;;
74630;SDS011;63138;55.082;38.804;2023-04-09T08:07:01;6.10;;;5.10;;
74630;SDS011;63138;55.082;38.804;2023-04-09T08:09:27;8.82;;;5.65;;
74630;SDS011;63138;55.082;38.804;2023-04-09T08:11:55;6.72;;;6.00;;
74630;SDS011;63138;55.082;38.804;2023-04-09T08:14:21;6.97;;;5.70;;
74630;SDS011;63138;55.082;38.804;2023-04-09T08:16:47;6.33;;;5.33;;
74630;SDS011;63138;55.082;38.804;2023-04-09T08:19:16;11.43;;;5.30;;
74630;SDS011;63138;55.082;38.804;2023-04-09T08:21:42;6.00;;;5.00;;
74630;SDS011;63138;55.082;38.804;2023-04-09T08:24:09;4.70;;;4.20;;
74630;SDS011;63138;55.082;38.804;2023-04-09T08:26:38;6.17;;;4.87;;
74630;SDS011;63138;55.082;38.804;2023-04-09T08:31:49;7.63;;;5.20;;
74630;SDS011;63138;55.082;38.804;2023-04-09T08:34:16;6.50;;;5.05;;
74630;SDS011;63138;55.082;38.804;2023-04-09T08:36:45;7.45;;;5.18;;
74630;SDS011;63138;55.082;38.804;2023-04-09T08:39:14;6.87;;;5.37;;
74630;SDS011;63138;55.082;38.804;2023-04-09T08:41:41;7.43;;;5.40;;
74630;SDS011;63138;55.082;38.804;2023-04-09T08:44:11;6.53;;;5.10;;
74630;SDS011;63138;55.082;38.804;2023-04-09T08:49:59;8.68;;;5.47;;
74630;SDS011;63138;55.082;38.804;2023-04-09T08:52:29;10.67;;;5.57;;
74630;SDS011;63138;55.082;38.804;2023-04-09T08:54:57;8.20;;;6.18;;
74630;SDS011;63138;55.082;38.804;2023-04-09T08:57:24;7.88;;;5.60;;
74630;SDS011;63138;55.082;38.804;2023-04-09T09:02:35;7.55;;;6.40;;
74630;SDS011;63138;55.082;38.804;2023-04-09T09:05:01;5.23;;;4.73;;
74630;SDS011;63138;55.082;38.804;2023-04-09T09:07:28;6.53;;;5.82;;
74630;SDS011;63138;55.082;38.804;2023-04-09T09:09:55;9.50;;;6.07;;
74630;SDS011;63138;55.082;38.804;2023-04-09T09:12:40;7.28;;;5.40;;
74630;SDS011;63138;55.082;38.804;2023-04-09T09:15:26;7.78;;;5.93;;
74630;SDS011;63138;55.082;38.804;2023-04-09T09:17:56;7.40;;;5.93;;
74630;SDS011;63138;55.082;38.804;2023-04-09T09:20:23;6.70;;;6.00;;
74630;SDS011;63138;55.082;38.804;2023-04-09T09:22:50;6.65;;;5.47;;
74630;SDS011;63138;55.082;38.804;2023-04-09T09:25:18;6.65;;;5.07;;
74630;SDS011;63138;55.082;38.804;2023-04-09T09:27:49;6.18;;;5.57;;
74630;SDS011;63138;55.082;38.804;2023-04-09T09:30:25;6.10;;;5.50;;
74630;SDS011;63138;55.082;38.804;2023-04-09T09:33:12;7.03;;;5.72;;
74630;SDS011;63138;55.082;38.804;2023-04-09T09:36:02;10.77;;;6.25;;
74630;SDS011;63138;55.082;38.804;2023-04-09T09:38:28;6.60;;;6.00;;
74630;SDS011;63138;55.082;38.804;2023-04-09T09:40:55;7.00;;;5.70;;
74630;SDS011;63138;55.082;38.804;2023-04-09T09:43:21;6.03;;;4.77;;
74630;SDS011;63138;55.082;38.804;2023-04-09T09:45:48;6.93;;;5.20;;
74630;SDS011;63138;55.082;38.804;2023-04-09T09:48:14;8.00;;;5.95;;
74630;SDS011;63138;55.082;38.804;2023-04-09T09:50:40;8.38;;;5.97;;
74630;SDS011;63138;55.082;38.804;2023-04-09T09:53:07;7.20;;;5.97;;
74630;SDS011;63138;55.082;38.804;2023-04-09T09:55:40;6.23;;;5.27;;
74630;SDS011;63138;55.082;38.804;2023-04-09T09:58:11;5.93;;;5.32;;
74630;SDS011;63138;55.082;38.804;2023-04-09T10:00:41;7.00;;;5.72;;
74630;SDS011;63138;55.082;38.804;2023-04-09T10:03:13;6.03;;;5.15;;
74630;SDS011;63138;55.082;38.804;2023-04-09T10:05:42;6.88;;;5.30;;
74630;SDS011;63138;55.082;38.804;2023-04-09T10:08:15;7.40;;;5.50;;
74630;SDS011;63138;55.082;38.804;2023-04-09T10:10:42;8.25;;;5.78;;
74630;SDS011;63138;55.082;38.804;2023-04-09T10:13:12;6.60;;;5.85;;
74630;SDS011;63138;55.082;38.804;2023-04-09T10:15:43;8.75;;;5.70;;
74630;SDS011;63138;55.082;38.804;2023-04-09T10:18:10;8.20;;;5.20;;
74630;SDS011;63138;55.082;38.804;2023-04-09T10:20:40;7.73;;;5.43;;
74630;SDS011;63138;55.082;38.804;2023-04-09T10:23:15;6.85;;;4.82;;
74630;SDS011;63138;55.082;38.804;2023-04-09T10:25:49;6.07;;;4.85;;
74630;SDS011;63138;55.082;38.804;2023-04-09T10:28:18;6.25;;;4.45;;
74630;SDS011;63138;55.082;38.804;2023-04-09T10:31:05;11.27;;;5.38;;
74630;SDS011;63138;55.082;38.804;2023-04-09T10:33:35;8.43;;;5.23;;
74630;SDS011;63138;55.082;38.804;2023-04-09T10:36:03;6.18;;;5.07;;
74630;SDS011;63138;55.082;38.804;2023-04-09T10:43:52;8.55;;;5.57;;
74630;SDS011;63138;55.082;38.804;2023-04-09T10:46:27;7.67;;;5.10;;
74630;SDS011;63138;55.082;38.804;2023-04-09T10:49:15;10.23;;;5.72;;
74630;SDS011;63138;55.082;38.804;2023-04-09T10:54:41;6.97;;;5.38;;
74630;SDS011;63138;55.082;38.804;2023-04-09T10:57:28;6.65;;;4.63;;
74630;SDS011;63138;55.082;38.804;2023-04-09T10:59:54;6.67;;;5.10;;
74630;SDS011;63138;55.082;38.804;2023-04-09T11:07:51;6.23;;;4.90;;
74630;SDS011;63138;55.082;38.804;2023-04-09T11:10:23;8.00;;;5.18;;
74630;SDS011;63138;55.082;38.804;2023-04-09T11:12:50;6.63;;;4.85;;
74630;SDS011;63138;55.082;38.804;2023-04-09T11:15:17;9.40;;;5.10;;
74630;SDS011;63138;55.082;38.804;2023-04-09T11:17:47;8.10;;;5.63;;
74630;SDS011;63138;55.082;38.804;2023-04-09T11:20:15;7.80;;;4.87;;
74630;SDS011;63138;55.082;38.804;2023-04-09T11:22:44;6.90;;;4.95;;
74630;SDS011;63138;55.082;38.804;2023-04-09T11:27:56;6.50;;;5.38;;
74630;SDS011;63138;55.082;38.804;2023-04-09T11:30:23;9.57;;;5.40;;
74630;SDS011;63138;55.082;38.804;2023-04-09T11:32:49;5.80;;;4.40;;
74630;SDS011;63138;55.082;38.804;2023-04-09T11:35:16;7.07;;;4.55;;
74630;SDS011;63138;55.082;38.804;2023-04-09T11:37:45;4.68;;;3.85;;
74630;SDS011;63138;55.082;38.804;2023-04-09T11:40:15;7.60;;;5.25;;
74630;SDS011;63138;55.082;38.804;2023-04-09T11:42:43;9.65;;;5.72;;
74630;SDS011;63138;55.082;38.804;2023-04-09T11:45:10;6.33;;;5.10;;
74630;SDS011;63138;55.082;38.804;2023-04-09T11:47:37;8.07;;;5.57;;
74630;SDS011;63138;55.082;38.804;2023-04-09T11:50:06;9.32;;;5.07;;
74630;SDS011;63138;55.082;38.804;2023-04-09T11:52:33;9.52;;;5.28;;
74630;SDS011;63138;55.082;38.804;2023-04-09T11:55:03;7.40;;;5.72;;
74630;SDS011;63138;55.082;38.804;2023-04-09T11:57:37;8.30;;;5.90;;
74630;SDS011;63138;55.082;38.804;2023-04-09T12:02:38;8.30;;;5.15;;
74630;SDS011;63138;55.082;38.804;2023-04-09T12:05:09;7.43;;;5.60;;
74630;SDS011;63138;55.082;38.804;2023-04-09T12:07:37;6.93;;;5.10;;
74630;SDS011;63138;55.082;38.804;2023-04-09T12:10:04;7.90;;;5.00;;
74630;SDS011;63138;55.082;38.804;2023-04-09T12:12:38;7.13;;;5.25;;
74630;SDS011;63138;55.082;38.804;2023-04-09T12:15:18;7.05;;;5.47;;
74630;SDS011;63138;55.082;38.804;2023-04-09T12:17:59;8.25;;;5.03;;
74630;SDS011;63138;55.082;38.804;2023-04-09T12:20:45;8.30;;;5.88;;
74630;SDS011;63138;55.082;38.804;2023-04-09T12:23:12;9.23;;;5.90;;
74630;SDS011;63138;55.082;38.804;2023-04-09T12:25:39;10.20;;;4.53;;
74630;SDS011;63138;55.082;38.804;2023-04-09T12:28:11;7.13;;;4.72;;
74630;SDS011;63138;55.082;38.804;2023-04-09T12:30:56;7.25;;;5.30;;
74630;SDS011;63138;55.082;38.804;2023-04-09T12:33:23;6.28;;;4.82;;
74630;SDS011;63138;55.082;38.804;2023-04-09T12:35:49;6.47;;;5.20;;
74630;SDS011;63138;55.082;38.804;2023-04-09T12:38:15;8.85;;;4.88;;
74630;SDS011;63138;55.082;38.804;2023-04-09T12:40:41;5.90;;;4.72;;
74630;SDS011;63138;55.082;38.804;2023-04-09T12:45:51;8.52;;;4.90;;
74630;SDS011;63138;55.082;38.804;2023-04-09T12:48:17;8.50;;;5.40;;
74630;SDS011;63138;55.082;38.804;2023-04-09T12:50:43;7.22;;;4.75;;
74630;SDS011;63138;55.082;38.804;2023-04-09T12:55:54;6.75;;;4.80;;
74630;SDS011;63138;55.082;38.804;2023-04-09T12:58:20;9.68;;;5.00;;
74630;SDS011;63138;55.082;38.804;2023-04-09T13:00:45;6.83;;;5.17;;
74630;SDS011;63138;55.082;38.804;2023-04-09T13:03:11;7.25;;;5.13;;
74630;SDS011;63138;55.082;38.804;2023-04-09T13:05:41;6.78;;;4.90;;
74630;SDS011;63138;55.082;38.804;2023-04-09T13:08:08;6.93;;;5.13;;
74630;SDS011;63138;55.082;38.804;2023-04-09T13:10:34;6.23;;;4.80;;
74630;SDS011;63138;55.082;38.804;2023-04-09T13:13:00;7.05;;;4.82;;
74630;SDS011;63138;55.082;38.804;2023-04-09T13:15:26;6.78;;;5.25;;
74630;SDS011;63138;55.082;38.804;2023-04-09T13:17:52;9.50;;;4.97;;
74630;SDS011;63138;55.082;38.804;2023-04-09T13:20:36;5.93;;;4.57;;
74630;SDS011;63138;55.082;38.804;2023-04-09T13:23:02;6.32;;;4.68;;
74630;SDS011;63138;55.082;38.804;2023-04-09T13:25:28;7.60;;;5.30;;
74630;SDS011;63138;55.082;38.804;2023-04-09T13:27:54;6.22;;;4.90;;
74630;SDS011;63138;55.082;38.804;2023-04-09T13:30:40;7.50;;;5.03;;
74630;SDS011;63138;55.082;38.804;2023-04-09T13:33:06;8.18;;;5.90;;
74630;SDS011;63138;55.082;38.804;2023-04-09T13:35:32;6.95;;;5.13;;
74630;SDS011;63138;55.082;38.804;2023-04-09T13:37:58;7.40;;;4.83;;
74630;SDS011;63138;55.082;38.804;2023-04-09T13:40:44;10.73;;;5.47;;
74630;SDS011;63138;55.082;38.804;2023-04-09T13:46:01;6.38;;;4.15;;
74630;SDS011;63138;55.082;38.804;2023-04-09T13:48:45;7.63;;;5.28;;
74630;SDS011;63138;55.082;38.804;2023-04-09T13:51:11;7.87;;;5.00;;
74630;SDS011;63138;55.082;38.804;2023-04-09T13:53:36;7.25;;;4.80;;
74630;SDS011;63138;55.082;38.804;2023-04-09T13:56:06;8.13;;;4.95;;
74630;SDS011;63138;55.082;38.804;2023-04-09T13:58:32;9.93;;;5.53;;
74630;SDS011;63138;55.082;38.804;2023-04-09T14:00:59;7.80;;;4.43;;
74630;SDS011;63138;55.082;38.804;2023-04-09T14:03:44;7.85;;;4.90;;
74630;SDS011;63138;55.082;38.804;2023-04-09T14:06:10;7.57;;;5.30;;
74630;SDS011;63138;55.082;38.804;2023-04-09T14:08:37;8.60;;;5.03;;
74630;SDS011;63138;55.082;38.804;2023-04-09T14:11:03;7.40;;;4.60;;
74630;SDS011;63138;55.082;38.804;2023-04-09T14:13:29;7.63;;;4.55;;
74630;SDS011;63138;55.082;38.804;2023-04-09T14:15:56;7.20;;;5.22;;
74630;SDS011;63138;55.082;38.804;2023-04-09T14:18:22;6.97;;;4.60;;
74630;SDS011;63138;55.082;38.804;2023-04-09T14:20:48;7.57;;;4.57;;
74630;SDS011;63138;55.082;38.804;2023-04-09T14:23:14;6.80;;;4.80;;
74630;SDS011;63138;55.082;38.804;2023-04-09T14:25:40;8.50;;;4.47;;
74630;SDS011;63138;55.082;38.804;2023-04-09T14:30:51;7.63;;;4.70;;
74630;SDS011;63138;55.082;38.804;2023-04-09T14:33:17;8.02;;;5.07;;
74630;SDS011;63138;55.082;38.804;2023-04-09T14:35:43;7.50;;;5.28;;
74630;SDS011;63138;55.082;38.804;2023-04-09T14:38:09;6.73;;;5.10;;
74630;SDS011;63138;55.082;38.804;2023-04-09T14:40:35;6.95;;;4.32;;
74630;SDS011;63138;55.082;38.804;2023-04-09T14:43:01;9.07;;;5.55;;
74630;SDS011;63138;55.082;38.804;2023-04-09T14:45:27;7.57;;;5.65;;
74630;SDS011;63138;55.082;38.804;2023-04-09T14:47:53;8.00;;;5.10;;
74630;SDS011;63138;55.082;38.804;2023-04-09T14:50:37;8.90;;;4.72;;
74630;SDS011;63138;55.082;38.804;2023-04-09T14:53:03;8.63;;;5.50;;
74630;SDS011;63138;55.082;38.804;2023-04-09T14:55:29;9.98;;;5.47;;
74630;SDS011;63138;55.082;38.804;2023-04-09T14:57:55;7.70;;;4.30;;
74630;SDS011;63138;55.082;38.804;2023-04-09T15:00:21;9.63;;;4.85;;
74630;SDS011;63138;55.082;38.804;2023-04-09T15:02:47;7.28;;;5.03;;
74630;SDS011;63138;55.082;38.804;2023-04-09T15:05:13;6.75;;;4.38;;
74630;SDS011;63138;55.082;38.804;2023-04-09T15:07:39;8.20;;;5.67;;
74630;SDS011;63138;55.082;38.804;2023-04-09T15:10:05;7.20;;;4.93;;
74630;SDS011;63138;55.082;38.804;2023-04-09T15:12:33;8.07;;;5.20;;
74630;SDS011;63138;55.082;38.804;2023-04-09T15:14:59;7.13;;;5.07;;
74630;SDS011;63138;55.082;38.804;2023-04-09T15:17:25;11.73;;;5.88;;
74630;SDS011;63138;55.082;38.804;2023-04-09T15:19:53;9.18;;;5.63;;
74630;SDS011;63138;55.082;38.804;2023-04-09T15:22:19;10.02;;;5.78;;
74630;SDS011;63138;55.082;38.804;2023-04-09T15:24:45;12.03;;;6.30;;
74630;SDS011;63138;55.082;38.804;2023-04-09T15:27:12;12.32;;;6.40;;